sensor_id;sensor_type;location;lat;lon;timestamp;P1;durP1;ratioP1;P2;durP2;ratioP2
4194;SDS011;2111;48.050;11.626;2022-07-12T00:01:59;0.70;;;0.70;;
4194;SDS011;2111;48.050;11.626;2022-07-12T00:04:27;1.35;;;0.70;;
4194;SDS011;2111;48.050;11.626;2022-07-12T00:06:55;1.10;;;0.70;;
4194;SDS011;2111;48.050;11.626;2022-07-12T00:09:21;0.80;;;0.75;;
4194;SDS011;2111;48.050;11.626;2022-07-12T00:11:48;2.35;;;0.68;;
4194;SDS011;2111;48.050;11.626;2022-07-12T00:14:15;0.68;;;0.68;;
4194;SDS011;2111;48.050;11.626;2022-07-12T00:16:42;0.60;;;0.60;;
4194;SDS011;2111;48.050;11.626;2022-07-12T00:19:09;0.88;;;0.80;;
4194;SDS011;2111;48.050;11.626;2022-07-12T00:21:36;0.63;;;0.63;;
4194;SDS011;2111;48.050;11.626;2022-07-12T00:24:03;1.20;;;0.73;;
4194;SDS011;2111;48.050;11.626;2022-07-12T00:26:30;1.25;;;0.70;;
4194;SDS011;2111;48.050;11.626;2022-07-12T00:28:58;0.63;;;0.63;;
4194;SDS011;2111;48.050;11.626;2022-07-12T00:31:25;0.63;;;0.63;;
4194;SDS011;2111;48.050;11.626;2022-07-12T00:33:51;1.38;;;0.60;;
4194;SDS011;2111;48.050;11.626;2022-07-12T00:36:18;0.73;;;0.73;;
4194;SDS011;2111;48.050;11.626;2022-07-12T00:38:46;1.55;;;0.60;;
4194;SDS011;2111;48.050;11.626;2022-07-12T00:41:13;1.67;;;0.65;;
4194;SDS011;2111;48.050;11.626;2022-07-12T00:43:40;0.52;;;0.52;;
4194;SDS011;2111;48.050;11.626;2022-07-12T00:46:08;0.95;;;0.70;;
4194;SDS011;2111;48.050;11.626;2022-07-12T00:48:35;3.50;;;0.60;;
4194;SDS011;2111;48.050;11.626;2022-07-12T00:51:03;1.23;;;0.88;;
4194;SDS011;2111;48.050;11.626;2022-07-12T00:53:30;0.77;;;0.68;;
4194;SDS011;2111;48.050;11.626;2022-07-12T00:55:57;1.10;;;0.70;;
4194;SDS011;2111;48.050;11.626;2022-07-12T00:58:24;1.20;;;0.60;;
4194;SDS011;2111;48.050;11.626;2022-07-12T01:00:52;0.70;;;0.70;;
4194;SDS011;2111;48.050;11.626;2022-07-12T01:03:21;0.60;;;0.50;;
4194;SDS011;2111;48.050;11.626;2022-07-12T01:05:48;1.13;;;1.05;;
4194;SDS011;2111;48.050;11.626;2022-07-12T01:08:16;1.85;;;0.63;;
4194;SDS011;2111;48.050;11.626;2022-07-12T01:10:50;1.30;;;0.80;;
4194;SDS011;2111;48.050;11.626;2022-07-12T01:13:17;0.70;;;0.70;;
4194;SDS011;2111;48.050;11.626;2022-07-12T01:15:44;1.80;;;0.70;;
4194;SDS011;2111;48.050;11.626;2022-07-12T01:18:13;0.60;;;0.60;;
4194;SDS011;2111;48.050;11.626;2022-07-12T01:20:41;1.45;;;0.70;;
4194;SDS011;2111;48.050;11.626;2022-07-12T01:23:08;1.17;;;0.80;;
4194;SDS011;2111;48.050;11.626;2022-07-12T01:25:36;1.02;;;0.70;;
4194;SDS011;2111;48.050;11.626;2022-07-12T01:28:03;0.85;;;0.80;;
4194;SDS011;2111;48.050;11.626;2022-07-12T01:30:30;0.75;;;0.75;;
4194;SDS011;2111;48.050;11.626;2022-07-12T01:32:58;0.80;;;0.70;;
4194;SDS011;2111;48.050;11.626;2022-07-12T01:35:26;0.80;;;0.80;;
4194;SDS011;2111;48.050;11.626;2022-07-12T01:37:54;0.85;;;0.70;;
4194;SDS011;2111;48.050;11.626;2022-07-12T01:40:22;0.70;;;0.70;;
4194;SDS011;2111;48.050;11.626;2022-07-12T01:42:49;0.77;;;0.77;;
4194;SDS011;2111;48.050;11.626;2022-07-12T01:45:18;1.48;;;0.60;;
4194;SDS011;2111;48.050;11.626;2022-07-12T01:47:45;1.65;;;0.98;;
4194;SDS011;2111;48.050;11.626;2022-07-12T01:50:11;0.70;;;0.70;;
4194;SDS011;2111;48.050;11.626;2022-07-12T01:52:39;0.70;;;0.70;;
4194;SDS011;2111;48.050;11.626;2022-07-12T01:55:06;1.00;;;0.75;;
4194;SDS011;2111;48.050;11.626;2022-07-12T01:57:34;0.70;;;0.70;;
4194;SDS011;2111;48.050;11.626;2022-07-12T02:00:03;0.65;;;0.65;;
4194;SDS011;2111;48.050;11.626;2022-07-12T02:02:31;0.98;;;0.88;;
4194;SDS011;2111;48.050;11.626;2022-07-12T02:04:59;0.93;;;0.90;;
4194;SDS011;2111;48.050;11.626;2022-07-12T02:07:26;0.70;;;0.70;;
4194;SDS011;2111;48.050;11.626;2022-07-12T02:09:54;1.52;;;0.90;;
4194;SDS011;2111;48.050;11.626;2022-07-12T02:12:21;0.80;;;0.70;;
4194;SDS011;2111;48.050;11.626;2022-07-12T02:14:48;0.90;;;0.90;;
4194;SDS011;2111;48.050;11.626;2022-07-12T02:17:16;0.73;;;0.73;;
4194;SDS011;2111;48.050;11.626;2022-07-12T02:19:43;0.50;;;0.50;;
4194;SDS011;2111;48.050;11.626;2022-07-12T02:22:10;2.20;;;0.90;;
4194;SDS011;2111;48.050;11.626;2022-07-12T02:24:37;0.63;;;0.60;;
4194;SDS011;2111;48.050;11.626;2022-07-12T02:27:04;0.63;;;0.63;;
4194;SDS011;2111;48.050;11.626;2022-07-12T02:29:31;1.27;;;0.93;;
4194;SDS011;2111;48.050;11.626;2022-07-12T02:31:58;0.75;;;0.75;;
4194;SDS011;2111;48.050;11.626;2022-07-12T02:34:25;0.65;;;0.65;;
4194;SDS011;2111;48.050;11.626;2022-07-12T02:36:52;2.38;;;0.50;;
4194;SDS011;2111;48.050;11.626;2022-07-12T02:39:19;0.73;;;0.70;;
4194;SDS011;2111;48.050;11.626;2022-07-12T02:41:46;0.88;;;0.70;;
4194;SDS011;2111;48.050;11.626;2022-07-12T02:44:13;1.20;;;0.90;;
4194;SDS011;2111;48.050;11.626;2022-07-12T02:46:40;0.70;;;0.70;;
4194;SDS011;2111;48.050;11.626;2022-07-12T02:49:06;0.75;;;0.70;;
4194;SDS011;2111;48.050;11.626;2022-07-12T02:51:33;2.00;;;0.80;;
4194;SDS011;2111;48.050;11.626;2022-07-12T02:54:00;0.90;;;0.70;;
4194;SDS011;2111;48.050;11.626;2022-07-12T02:56:27;0.82;;;0.82;;
4194;SDS011;2111;48.050;11.626;2022-07-12T02:58:54;2.17;;;0.70;;
4194;SDS011;2111;48.050;11.626;2022-07-12T03:01:21;0.77;;;0.77;;
4194;SDS011;2111;48.050;11.626;2022-07-12T03:03:48;0.77;;;0.77;;
4194;SDS011;2111;48.050;11.626;2022-07-12T03:06:14;1.15;;;1.05;;
4194;SDS011;2111;48.050;11.626;2022-07-12T03:08:42;1.58;;;1.13;;
4194;SDS011;2111;48.050;11.626;2022-07-12T03:11:09;0.70;;;0.70;;
4194;SDS011;2111;48.050;11.626;2022-07-12T03:13:36;0.93;;;0.93;;
4194;SDS011;2111;48.050;11.626;2022-07-12T03:16:04;3.08;;;0.85;;
4194;SDS011;2111;48.050;11.626;2022-07-12T03:18:31;0.80;;;0.80;;
4194;SDS011;2111;48.050;11.626;2022-07-12T03:20:59;0.65;;;0.60;;
4194;SDS011;2111;48.050;11.626;2022-07-12T03:23:26;1.42;;;0.80;;
4194;SDS011;2111;48.050;11.626;2022-07-12T03:25:53;1.02;;;1.02;;
4194;SDS011;2111;48.050;11.626;2022-07-12T03:28:20;0.80;;;0.77;;
4194;SDS011;2111;48.050;11.626;2022-07-12T03:30:47;1.58;;;0.77;;
4194;SDS011;2111;48.050;11.626;2022-07-12T03:33:14;0.82;;;0.82;;
4194;SDS011;2111;48.050;11.626;2022-07-12T03:35:41;1.00;;;1.00;;
4194;SDS011;2111;48.050;11.626;2022-07-12T03:38:07;0.75;;;0.75;;
4194;SDS011;2111;48.050;11.626;2022-07-12T03:40:34;0.70;;;0.70;;
4194;SDS011;2111;48.050;11.626;2022-07-12T03:43:01;0.73;;;0.73;;
4194;SDS011;2111;48.050;11.626;2022-07-12T03:45:28;4.10;;;2.03;;
4194;SDS011;2111;48.050;11.626;2022-07-12T03:47:55;1.30;;;1.20;;
4194;SDS011;2111;48.050;11.626;2022-07-12T03:50:22;2.50;;;0.82;;
4194;SDS011;2111;48.050;11.626;2022-07-12T03:52:50;1.02;;;0.93;;
4194;SDS011;2111;48.050;11.626;2022-07-12T03:55:17;0.90;;;0.90;;
4194;SDS011;2111;48.050;11.626;2022-07-12T03:57:44;1.08;;;0.98;;
4194;SDS011;2111;48.050;11.626;2022-07-12T04:00:11;1.58;;;0.82;;
4194;SDS011;2111;48.050;11.626;2022-07-12T04:02:39;1.20;;;0.90;;
4194;SDS011;2111;48.050;11.626;2022-07-12T04:05:07;1.02;;;0.93;;
4194;SDS011;2111;48.050;11.626;2022-07-12T04:07:35;1.10;;;1.00;;
4194;SDS011;2111;48.050;11.626;2022-07-12T04:10:03;1.20;;;1.10;;
4194;SDS011;2111;48.050;11.626;2022-07-12T04:12:30;1.92;;;1.17;;
4194;SDS011;2111;48.050;11.626;2022-07-12T04:14:57;3.22;;;1.13;;
4194;SDS011;2111;48.050;11.626;2022-07-12T04:17:24;1.20;;;1.10;;
4194;SDS011;2111;48.050;11.626;2022-07-12T04:19:51;2.10;;;1.00;;
4194;SDS011;2111;48.050;11.626;2022-07-12T04:22:18;0.98;;;0.85;;
4194;SDS011;2111;48.050;11.626;2022-07-12T04:24:45;1.00;;;0.90;;
4194;SDS011;2111;48.050;11.626;2022-07-12T04:27:11;3.67;;;1.10;;
4194;SDS011;2111;48.050;11.626;2022-07-12T04:29:38;1.38;;;1.00;;
4194;SDS011;2111;48.050;11.626;2022-07-12T04:32:05;1.17;;;1.08;;
4194;SDS011;2111;48.050;11.626;2022-07-12T04:34:32;1.60;;;1.13;;
4194;SDS011;2111;48.050;11.626;2022-07-12T04:36:59;0.90;;;0.90;;
4194;SDS011;2111;48.050;11.626;2022-07-12T04:39:26;1.33;;;1.17;;
4194;SDS011;2111;48.050;11.626;2022-07-12T04:41:53;1.85;;;1.00;;
4194;SDS011;2111;48.050;11.626;2022-07-12T04:44:20;2.58;;;0.85;;
4194;SDS011;2111;48.050;11.626;2022-07-12T04:46:46;2.00;;;0.95;;
4194;SDS011;2111;48.050;11.626;2022-07-12T04:49:13;1.38;;;1.27;;
4194;SDS011;2111;48.050;11.626;2022-07-12T04:51:40;2.08;;;1.13;;
4194;SDS011;2111;48.050;11.626;2022-07-12T04:54:08;1.30;;;1.10;;
4194;SDS011;2111;48.050;11.626;2022-07-12T04:56:34;2.33;;;1.17;;
4194;SDS011;2111;48.050;11.626;2022-07-12T04:59:01;1.95;;;1.40;;
4194;SDS011;2111;48.050;11.626;2022-07-12T05:01:28;1.52;;;1.42;;
4194;SDS011;2111;48.050;11.626;2022-07-12T05:03:56;2.42;;;1.40;;
4194;SDS011;2111;48.050;11.626;2022-07-12T05:06:22;2.13;;;1.40;;
4194;SDS011;2111;48.050;11.626;2022-07-12T05:08:49;2.90;;;1.65;;
4194;SDS011;2111;48.050;11.626;2022-07-12T05:11:16;2.67;;;1.55;;
4194;SDS011;2111;48.050;11.626;2022-07-12T05:13:43;1.63;;;1.48;;
4194;SDS011;2111;48.050;11.626;2022-07-12T05:16:10;1.83;;;1.52;;
4194;SDS011;2111;48.050;11.626;2022-07-12T05:18:37;1.60;;;1.50;;
4194;SDS011;2111;48.050;11.626;2022-07-12T05:21:04;5.00;;;1.63;;
4194;SDS011;2111;48.050;11.626;2022-07-12T05:23:31;3.75;;;1.65;;
4194;SDS011;2111;48.050;11.626;2022-07-12T05:25:58;1.35;;;1.25;;
4194;SDS011;2111;48.050;11.626;2022-07-12T05:28:25;1.30;;;1.20;;
4194;SDS011;2111;48.050;11.626;2022-07-12T05:30:52;1.30;;;1.10;;
4194;SDS011;2111;48.050;11.626;2022-07-12T05:33:19;1.73;;;1.40;;
4194;SDS011;2111;48.050;11.626;2022-07-12T05:35:47;3.22;;;1.40;;
4194;SDS011;2111;48.050;11.626;2022-07-12T05:38:13;2.28;;;1.13;;
4194;SDS011;2111;48.050;11.626;2022-07-12T05:40:40;1.67;;;1.35;;
4194;SDS011;2111;48.050;11.626;2022-07-12T05:43:07;1.52;;;1.33;;
4194;SDS011;2111;48.050;11.626;2022-07-12T05:45:34;1.83;;;1.73;;
4194;SDS011;2111;48.050;11.626;2022-07-12T05:48:01;3.85;;;1.33;;
4194;SDS011;2111;48.050;11.626;2022-07-12T05:50:28;1.52;;;1.42;;
4194;SDS011;2111;48.050;11.626;2022-07-12T05:52:55;1.67;;;1.05;;
4194;SDS011;2111;48.050;11.626;2022-07-12T05:55:41;2.65;;;1.10;;
4194;SDS011;2111;48.050;11.626;2022-07-12T05:58:08;1.60;;;1.35;;
4194;SDS011;2111;48.050;11.626;2022-07-12T06:00:35;2.97;;;1.10;;
4194;SDS011;2111;48.050;11.626;2022-07-12T06:03:01;1.48;;;1.23;;
4194;SDS011;2111;48.050;11.626;2022-07-12T06:05:28;1.00;;;1.00;;
4194;SDS011;2111;48.050;11.626;2022-07-12T06:07:58;1.83;;;0.90;;
4194;SDS011;2111;48.050;11.626;2022-07-12T06:10:28;0.90;;;0.90;;
4194;SDS011;2111;48.050;11.626;2022-07-12T06:12:55;1.30;;;1.20;;
4194;SDS011;2111;48.050;11.626;2022-07-12T06:15:22;1.00;;;1.00;;
4194;SDS011;2111;48.050;11.626;2022-07-12T06:17:56;1.63;;;1.20;;
4194;SDS011;2111;48.050;11.626;2022-07-12T06:20:24;1.85;;;1.42;;
4194;SDS011;2111;48.050;11.626;2022-07-12T06:22:51;0.95;;;0.93;;
4194;SDS011;2111;48.050;11.626;2022-07-12T06:25:19;1.27;;;1.10;;
4194;SDS011;2111;48.050;11.626;2022-07-12T06:28:06;1.20;;;1.10;;
4194;SDS011;2111;48.050;11.626;2022-07-12T06:30:33;1.33;;;1.17;;
4194;SDS011;2111;48.050;11.626;2022-07-12T06:33:00;1.75;;;0.95;;
4194;SDS011;2111;48.050;11.626;2022-07-12T06:35:27;0.80;;;0.80;;
4194;SDS011;2111;48.050;11.626;2022-07-12T06:37:54;0.82;;;0.82;;
4194;SDS011;2111;48.050;11.626;2022-07-12T06:40:21;0.77;;;0.77;;
4194;SDS011;2111;48.050;11.626;2022-07-12T06:42:48;0.80;;;0.80;;
4194;SDS011;2111;48.050;11.626;2022-07-12T06:45:17;0.80;;;0.80;;
4194;SDS011;2111;48.050;11.626;2022-07-12T06:47:44;3.58;;;0.77;;
4194;SDS011;2111;48.050;11.626;2022-07-12T06:50:11;0.93;;;0.57;;
4194;SDS011;2111;48.050;11.626;2022-07-12T06:52:38;0.68;;;0.47;;
4194;SDS011;2111;48.050;11.626;2022-07-12T06:55:05;0.77;;;0.50;;
4194;SDS011;2111;48.050;11.626;2022-07-12T06:57:33;1.27;;;0.40;;
4194;SDS011;2111;48.050;11.626;2022-07-12T07:00:00;1.67;;;0.43;;
4194;SDS011;2111;48.050;11.626;2022-07-12T07:02:30;1.00;;;0.57;;
4194;SDS011;2111;48.050;11.626;2022-07-12T07:04:57;1.35;;;0.57;;
4194;SDS011;2111;48.050;11.626;2022-07-12T07:07:24;0.77;;;0.55;;
4194;SDS011;2111;48.050;11.626;2022-07-12T07:09:50;0.57;;;0.57;;
4194;SDS011;2111;48.050;11.626;2022-07-12T07:12:18;1.15;;;0.50;;
4194;SDS011;2111;48.050;11.626;2022-07-12T07:14:44;0.75;;;0.50;;
4194;SDS011;2111;48.050;11.626;2022-07-12T07:17:11;0.60;;;0.60;;
4194;SDS011;2111;48.050;11.626;2022-07-12T07:19:43;0.63;;;0.63;;
4194;SDS011;2111;48.050;11.626;2022-07-12T07:22:10;0.70;;;0.70;;
4194;SDS011;2111;48.050;11.626;2022-07-12T07:24:38;0.82;;;0.60;;
4194;SDS011;2111;48.050;11.626;2022-07-12T07:27:06;1.10;;;0.50;;
4194;SDS011;2111;48.050;11.626;2022-07-12T07:29:34;0.70;;;0.70;;
4194;SDS011;2111;48.050;11.626;2022-07-12T07:32:19;1.10;;;0.75;;
4194;SDS011;2111;48.050;11.626;2022-07-12T07:34:45;1.73;;;0.63;;
4194;SDS011;2111;48.050;11.626;2022-07-12T07:37:12;1.08;;;0.70;;
4194;SDS011;2111;48.050;11.626;2022-07-12T07:39:40;1.00;;;0.57;;
4194;SDS011;2111;48.050;11.626;2022-07-12T07:42:07;1.00;;;0.63;;
4194;SDS011;2111;48.050;11.626;2022-07-12T07:44:34;0.98;;;0.57;;
4194;SDS011;2111;48.050;11.626;2022-07-12T07:47:20;0.68;;;0.60;;
4194;SDS011;2111;48.050;11.626;2022-07-12T07:49:48;0.95;;;0.70;;
4194;SDS011;2111;48.050;11.626;2022-07-12T07:52:14;0.38;;;0.38;;
4194;SDS011;2111;48.050;11.626;2022-07-12T07:54:41;2.88;;;0.52;;
4194;SDS011;2111;48.050;11.626;2022-07-12T07:57:08;0.50;;;0.50;;
4194;SDS011;2111;48.050;11.626;2022-07-12T07:59:35;0.50;;;0.50;;
4194;SDS011;2111;48.050;11.626;2022-07-12T08:02:03;3.85;;;1.02;;
4194;SDS011;2111;48.050;11.626;2022-07-12T08:04:30;0.60;;;0.50;;
4194;SDS011;2111;48.050;11.626;2022-07-12T08:06:57;0.80;;;0.50;;
4194;SDS011;2111;48.050;11.626;2022-07-12T08:09:24;0.50;;;0.50;;
4194;SDS011;2111;48.050;11.626;2022-07-12T08:11:51;3.28;;;0.60;;
4194;SDS011;2111;48.050;11.626;2022-07-12T08:14:18;1.73;;;0.50;;
4194;SDS011;2111;48.050;11.626;2022-07-12T08:16:45;0.98;;;0.50;;
4194;SDS011;2111;48.050;11.626;2022-07-12T08:19:12;0.40;;;0.40;;
4194;SDS011;2111;48.050;11.626;2022-07-12T08:21:39;1.38;;;0.50;;
4194;SDS011;2111;48.050;11.626;2022-07-12T08:24:05;0.47;;;0.47;;
4194;SDS011;2111;48.050;11.626;2022-07-12T08:26:35;0.60;;;0.32;;
4194;SDS011;2111;48.050;11.626;2022-07-12T08:29:02;0.93;;;0.40;;
4194;SDS011;2111;48.050;11.626;2022-07-12T08:31:28;0.47;;;0.47;;
4194;SDS011;2111;48.050;11.626;2022-07-12T08:33:55;1.95;;;0.40;;
4194;SDS011;2111;48.050;11.626;2022-07-12T08:36:22;0.50;;;0.30;;
4194;SDS011;2111;48.050;11.626;2022-07-12T08:38:52;0.50;;;0.43;;
4194;SDS011;2111;48.050;11.626;2022-07-12T08:41:19;1.30;;;0.40;;
4194;SDS011;2111;48.050;11.626;2022-07-12T08:43:46;0.30;;;0.30;;
4194;SDS011;2111;48.050;11.626;2022-07-12T08:46:13;0.30;;;0.30;;
4194;SDS011;2111;48.050;11.626;2022-07-12T08:48:42;0.40;;;0.40;;
4194;SDS011;2111;48.050;11.626;2022-07-12T08:51:10;1.00;;;0.47;;
4194;SDS011;2111;48.050;11.626;2022-07-12T08:53:39;1.20;;;0.40;;
4194;SDS011;2111;48.050;11.626;2022-07-12T08:56:07;2.50;;;0.40;;
4194;SDS011;2111;48.050;11.626;2022-07-12T08:58:34;0.68;;;0.40;;
4194;SDS011;2111;48.050;11.626;2022-07-12T09:01:01;0.40;;;0.40;;
4194;SDS011;2111;48.050;11.626;2022-07-12T09:03:27;1.45;;;0.30;;
4194;SDS011;2111;48.050;11.626;2022-07-12T09:05:57;1.05;;;0.40;;
4194;SDS011;2111;48.050;11.626;2022-07-12T09:08:26;0.45;;;0.38;;
4194;SDS011;2111;48.050;11.626;2022-07-12T09:10:59;0.52;;;0.50;;
4194;SDS011;2111;48.050;11.626;2022-07-12T09:16:24;0.40;;;0.40;;
4194;SDS011;2111;48.050;11.626;2022-07-12T09:19:11;0.40;;;0.40;;
4194;SDS011;2111;48.050;11.626;2022-07-12T09:21:41;0.90;;;0.30;;
4194;SDS011;2111;48.050;11.626;2022-07-12T09:24:16;0.70;;;0.30;;
4194;SDS011;2111;48.050;11.626;2022-07-12T09:26:44;0.45;;;0.45;;
4194;SDS011;2111;48.050;11.626;2022-07-12T09:29:11;1.08;;;0.47;;
4194;SDS011;2111;48.050;11.626;2022-07-12T09:31:40;0.30;;;0.30;;
4194;SDS011;2111;48.050;11.626;2022-07-12T09:34:28;0.57;;;0.30;;
4194;SDS011;2111;48.050;11.626;2022-07-12T09:37:14;0.38;;;0.38;;
4194;SDS011;2111;48.050;11.626;2022-07-12T09:39:41;0.30;;;0.30;;
4194;SDS011;2111;48.050;11.626;2022-07-12T09:42:09;0.50;;;0.50;;
4194;SDS011;2111;48.050;11.626;2022-07-12T09:44:37;0.43;;;0.43;;
4194;SDS011;2111;48.050;11.626;2022-07-12T09:47:08;0.30;;;0.30;;
4194;SDS011;2111;48.050;11.626;2022-07-12T09:49:39;0.30;;;0.30;;
4194;SDS011;2111;48.050;11.626;2022-07-12T09:52:09;0.50;;;0.50;;
4194;SDS011;2111;48.050;11.626;2022-07-12T09:54:38;0.65;;;0.30;;
4194;SDS011;2111;48.050;11.626;2022-07-12T09:57:10;0.35;;;0.35;;
4194;SDS011;2111;48.050;11.626;2022-07-12T09:59:45;1.42;;;0.65;;
4194;SDS011;2111;48.050;11.626;2022-07-12T10:02:14;0.32;;;0.30;;
4194;SDS011;2111;48.050;11.626;2022-07-12T10:04:42;0.30;;;0.30;;
4194;SDS011;2111;48.050;11.626;2022-07-12T10:07:09;1.27;;;0.45;;
4194;SDS011;2111;48.050;11.626;2022-07-12T10:09:40;1.30;;;0.40;;
4194;SDS011;2111;48.050;11.626;2022-07-12T10:12:11;0.30;;;0.30;;
4194;SDS011;2111;48.050;11.626;2022-07-12T10:14:39;1.55;;;0.40;;
4194;SDS011;2111;48.050;11.626;2022-07-12T10:17:07;0.82;;;0.50;;
4194;SDS011;2111;48.050;11.626;2022-07-12T10:19:39;1.00;;;0.30;;
4194;SDS011;2111;48.050;11.626;2022-07-12T10:22:06;0.80;;;0.40;;
4194;SDS011;2111;48.050;11.626;2022-07-12T10:24:46;0.40;;;0.40;;
4194;SDS011;2111;48.050;11.626;2022-07-12T10:29:50;0.20;;;0.20;;
4194;SDS011;2111;48.050;11.626;2022-07-12T10:32:23;2.38;;;0.40;;
4194;SDS011;2111;48.050;11.626;2022-07-12T10:34:56;1.27;;;0.35;;
4194;SDS011;2111;48.050;11.626;2022-07-12T10:37:23;0.20;;;0.20;;
4194;SDS011;2111;48.050;11.626;2022-07-12T10:45:31;0.30;;;0.30;;
4194;SDS011;2111;48.050;11.626;2022-07-12T10:48:03;0.38;;;0.30;;
4194;SDS011;2111;48.050;11.626;2022-07-12T10:58:59;0.25;;;0.25;;
4194;SDS011;2111;48.050;11.626;2022-07-12T11:01:27;0.47;;;0.47;;
4194;SDS011;2111;48.050;11.626;2022-07-12T11:04:08;1.38;;;0.30;;
4194;SDS011;2111;48.050;11.626;2022-07-12T11:06:36;0.45;;;0.40;;
4194;SDS011;2111;48.050;11.626;2022-07-12T11:09:08;0.25;;;0.25;;
4194;SDS011;2111;48.050;11.626;2022-07-12T11:11:45;0.20;;;0.20;;
4194;SDS011;2111;48.050;11.626;2022-07-12T11:14:26;2.45;;;0.22;;
4194;SDS011;2111;48.050;11.626;2022-07-12T11:16:55;0.30;;;0.30;;
4194;SDS011;2111;48.050;11.626;2022-07-12T11:19:26;0.30;;;0.30;;
4194;SDS011;2111;48.050;11.626;2022-07-12T11:21:54;0.35;;;0.30;;
4194;SDS011;2111;48.050;11.626;2022-07-12T11:24:26;0.80;;;0.30;;
4194;SDS011;2111;48.050;11.626;2022-07-12T11:26:53;0.50;;;0.30;;
4194;SDS011;2111;48.050;11.626;2022-07-12T11:29:21;0.22;;;0.20;;
4194;SDS011;2111;48.050;11.626;2022-07-12T11:31:48;0.50;;;0.30;;
4194;SDS011;2111;48.050;11.626;2022-07-12T11:34:23;0.45;;;0.40;;
4194;SDS011;2111;48.050;11.626;2022-07-12T11:36:54;0.35;;;0.30;;
4194;SDS011;2111;48.050;11.626;2022-07-12T11:39:35;0.30;;;0.30;;
4194;SDS011;2111;48.050;11.626;2022-07-12T11:42:03;0.20;;;0.20;;
4194;SDS011;2111;48.050;11.626;2022-07-12T11:44:50;0.38;;;0.30;;
4194;SDS011;2111;48.050;11.626;2022-07-12T11:47:18;0.20;;;0.15;;
4194;SDS011;2111;48.050;11.626;2022-07-12T11:49:54;0.30;;;0.20;;
4194;SDS011;2111;48.050;11.626;2022-07-12T11:52:22;0.20;;;0.20;;
4194;SDS011;2111;48.050;11.626;2022-07-12T11:54:51;0.40;;;0.40;;
4194;SDS011;2111;48.050;11.626;2022-07-12T11:57:19;0.30;;;0.25;;
4194;SDS011;2111;48.050;11.626;2022-07-12T11:59:47;0.38;;;0.32;;
4194;SDS011;2111;48.050;11.626;2022-07-12T12:02:14;0.40;;;0.40;;
4194;SDS011;2111;48.050;11.626;2022-07-12T12:04:43;0.30;;;0.30;;
4194;SDS011;2111;48.050;11.626;2022-07-12T12:07:18;0.20;;;0.20;;
4194;SDS011;2111;48.050;11.626;2022-07-12T12:12:26;0.38;;;0.30;;
4194;SDS011;2111;48.050;11.626;2022-07-12T12:14:53;0.28;;;0.28;;
4194;SDS011;2111;48.050;11.626;2022-07-12T12:17:20;0.20;;;0.20;;
4194;SDS011;2111;48.050;11.626;2022-07-12T12:19:46;0.25;;;0.20;;
4194;SDS011;2111;48.050;11.626;2022-07-12T12:22:32;1.33;;;0.20;;
4194;SDS011;2111;48.050;11.626;2022-07-12T12:25:05;0.90;;;0.38;;
4194;SDS011;2111;48.050;11.626;2022-07-12T12:27:46;2.00;;;0.40;;
4194;SDS011;2111;48.050;11.626;2022-07-12T12:30:34;0.13;;;0.13;;
4194;SDS011;2111;48.050;11.626;2022-07-12T12:33:32;0.20;;;0.20;;
4194;SDS011;2111;48.050;11.626;2022-07-12T12:38:55;0.20;;;0.20;;
4194;SDS011;2111;48.050;11.626;2022-07-12T12:41:24;0.30;;;0.20;;
4194;SDS011;2111;48.050;11.626;2022-07-12T12:43:56;0.20;;;0.20;;
4194;SDS011;2111;48.050;11.626;2022-07-12T12:47:00;0.30;;;0.30;;
4194;SDS011;2111;48.050;11.626;2022-07-12T12:49:43;0.20;;;0.20;;
4194;SDS011;2111;48.050;11.626;2022-07-12T12:52:10;1.35;;;0.30;;
4194;SDS011;2111;48.050;11.626;2022-07-12T12:54:37;0.10;;;0.10;;
4194;SDS011;2111;48.050;11.626;2022-07-12T12:57:05;0.40;;;0.20;;
4194;SDS011;2111;48.050;11.626;2022-07-12T12:59:33;1.23;;;0.20;;
4194;SDS011;2111;48.050;11.626;2022-07-12T13:02:00;0.90;;;0.20;;
4194;SDS011;2111;48.050;11.626;2022-07-12T13:04:28;4.03;;;0.30;;
4194;SDS011;2111;48.050;11.626;2022-07-12T13:06:56;0.10;;;0.10;;
4194;SDS011;2111;48.050;11.626;2022-07-12T13:09:24;1.48;;;0.13;;
4194;SDS011;2111;48.050;11.626;2022-07-12T13:11:51;2.58;;;0.20;;
4194;SDS011;2111;48.050;11.626;2022-07-12T13:14:18;0.20;;;0.20;;
4194;SDS011;2111;48.050;11.626;2022-07-12T13:16:45;0.30;;;0.30;;
4194;SDS011;2111;48.050;11.626;2022-07-12T13:19:12;2.13;;;0.20;;
4194;SDS011;2111;48.050;11.626;2022-07-12T13:21:39;0.10;;;0.10;;
4194;SDS011;2111;48.050;11.626;2022-07-12T13:24:06;0.20;;;0.20;;
4194;SDS011;2111;48.050;11.626;2022-07-12T13:26:33;0.20;;;0.20;;
4194;SDS011;2111;48.050;11.626;2022-07-12T13:29:00;0.47;;;0.20;;
4194;SDS011;2111;48.050;11.626;2022-07-12T13:31:27;0.25;;;0.20;;
4194;SDS011;2111;48.050;11.626;2022-07-12T13:33:53;0.20;;;0.20;;
4194;SDS011;2111;48.050;11.626;2022-07-12T13:36:20;1.55;;;0.20;;
4194;SDS011;2111;48.050;11.626;2022-07-12T13:38:47;0.43;;;0.20;;
4194;SDS011;2111;48.050;11.626;2022-07-12T13:41:14;2.40;;;0.40;;
4194;SDS011;2111;48.050;11.626;2022-07-12T13:43:41;0.20;;;0.20;;
4194;SDS011;2111;48.050;11.626;2022-07-12T13:46:08;1.08;;;0.20;;
4194;SDS011;2111;48.050;11.626;2022-07-12T13:48:35;0.20;;;0.20;;
4194;SDS011;2111;48.050;11.626;2022-07-12T13:51:02;0.20;;;0.20;;
4194;SDS011;2111;48.050;11.626;2022-07-12T13:53:49;0.10;;;0.10;;
4194;SDS011;2111;48.050;11.626;2022-07-12T13:56:15;0.17;;;0.10;;
4194;SDS011;2111;48.050;11.626;2022-07-12T13:58:42;0.10;;;0.10;;
4194;SDS011;2111;48.050;11.626;2022-07-12T14:01:10;0.25;;;0.15;;
4194;SDS011;2111;48.050;11.626;2022-07-12T14:03:37;0.10;;;0.10;;
4194;SDS011;2111;48.050;11.626;2022-07-12T14:06:03;0.63;;;0.20;;
4194;SDS011;2111;48.050;11.626;2022-07-12T14:08:33;0.10;;;0.10;;
4194;SDS011;2111;48.050;11.626;2022-07-12T14:11:00;0.65;;;0.20;;
4194;SDS011;2111;48.050;11.626;2022-07-12T14:13:27;1.75;;;0.15;;
4194;SDS011;2111;48.050;11.626;2022-07-12T14:15:54;2.92;;;0.17;;
4194;SDS011;2111;48.050;11.626;2022-07-12T14:18:22;0.13;;;0.13;;
4194;SDS011;2111;48.050;11.626;2022-07-12T14:20:50;0.85;;;0.10;;
4194;SDS011;2111;48.050;11.626;2022-07-12T14:23:17;0.55;;;0.10;;
4194;SDS011;2111;48.050;11.626;2022-07-12T14:25:44;0.10;;;0.10;;
4194;SDS011;2111;48.050;11.626;2022-07-12T14:28:11;0.82;;;0.10;;
4194;SDS011;2111;48.050;11.626;2022-07-12T14:30:38;1.13;;;0.10;;
4194;SDS011;2111;48.050;11.626;2022-07-12T14:33:04;0.10;;;0.10;;
4194;SDS011;2111;48.050;11.626;2022-07-12T14:35:31;0.20;;;0.20;;
4194;SDS011;2111;48.050;11.626;2022-07-12T14:37:59;1.27;;;0.28;;
4194;SDS011;2111;48.050;11.626;2022-07-12T14:40:26;1.45;;;0.28;;
4194;SDS011;2111;48.050;11.626;2022-07-12T14:42:53;0.10;;;0.10;;
4194;SDS011;2111;48.050;11.626;2022-07-12T14:45:23;0.50;;;0.20;;
4194;SDS011;2111;48.050;11.626;2022-07-12T14:47:50;0.55;;;0.30;;
4194;SDS011;2111;48.050;11.626;2022-07-12T14:50:18;0.20;;;0.20;;
4194;SDS011;2111;48.050;11.626;2022-07-12T14:52:45;0.20;;;0.20;;
4194;SDS011;2111;48.050;11.626;2022-07-12T14:55:11;0.20;;;0.20;;
4194;SDS011;2111;48.050;11.626;2022-07-12T14:57:39;0.38;;;0.30;;
4194;SDS011;2111;48.050;11.626;2022-07-12T15:00:06;0.20;;;0.17;;
4194;SDS011;2111;48.050;11.626;2022-07-12T15:02:34;0.38;;;0.28;;
4194;SDS011;2111;48.050;11.626;2022-07-12T15:05:01;0.45;;;0.20;;
4194;SDS011;2111;48.050;11.626;2022-07-12T15:07:30;0.63;;;0.10;;
4194;SDS011;2111;48.050;11.626;2022-07-12T15:09:57;0.95;;;0.20;;
4194;SDS011;2111;48.050;11.626;2022-07-12T15:12:24;0.20;;;0.20;;
4194;SDS011;2111;48.050;11.626;2022-07-12T15:14:51;0.15;;;0.15;;
4194;SDS011;2111;48.050;11.626;2022-07-12T15:17:23;0.52;;;0.30;;
4194;SDS011;2111;48.050;11.626;2022-07-12T15:19:50;0.30;;;0.20;;
4194;SDS011;2111;48.050;11.626;2022-07-12T15:22:17;0.10;;;0.10;;
4194;SDS011;2111;48.050;11.626;2022-07-12T15:24:44;0.10;;;0.10;;
4194;SDS011;2111;48.050;11.626;2022-07-12T15:27:11;0.20;;;0.10;;
4194;SDS011;2111;48.050;11.626;2022-07-12T15:29:39;0.30;;;0.30;;
4194;SDS011;2111;48.050;11.626;2022-07-12T15:32:08;0.20;;;0.20;;
4194;SDS011;2111;48.050;11.626;2022-07-12T15:34:35;0.30;;;0.30;;